sensor_id;sensor_type;location;lat;lon;timestamp;temperature;humidity
19168;DHT22;9716;53.114;18.040;2023-09-19T00:00:44;21.30;99.90
19168;DHT22;9716;53.114;18.040;2023-09-19T00:03:34;21.30;99.90
19168;DHT22;9716;53.114;18.040;2023-09-19T00:06:05;21.30;99.90
19168;DHT22;9716;53.114;18.040;2023-09-19T00:08:36;21.30;99.90
19168;DHT22;9716;53.114;18.040;2023-09-19T00:11:05;21.30;99.90
19168;DHT22;9716;53.114;18.040;2023-09-19T00:13:35;21.30;99.90
19168;DHT22;9716;53.114;18.040;2023-09-19T00:16:08;21.30;99.90
19168;DHT22;9716;53.114;18.040;2023-09-19T00:18:38;21.20;99.90
19168;DHT22;9716;53.114;18.040;2023-09-19T00:21:06;21.20;99.90
19168;DHT22;9716;53.114;18.040;2023-09-19T00:23:35;21.30;99.90
19168;DHT22;9716;53.114;18.040;2023-09-19T00:26:05;21.30;99.90
19168;DHT22;9716;53.114;18.040;2023-09-19T00:28:34;21.30;99.90
19168;DHT22;9716;53.114;18.040;2023-09-19T00:31:02;21.30;99.90
19168;DHT22;9716;53.114;18.040;2023-09-19T00:33:32;21.20;99.90
19168;DHT22;9716;53.114;18.040;2023-09-19T00:36:01;21.30;99.90
19168;DHT22;9716;53.114;18.040;2023-09-19T00:38:32;21.30;99.90
19168;DHT22;9716;53.114;18.040;2023-09-19T00:41:01;21.30;99.90
19168;DHT22;9716;53.114;18.040;2023-09-19T00:43:31;21.30;99.90
19168;DHT22;9716;53.114;18.040;2023-09-19T00:46:02;21.30;99.90
19168;DHT22;9716;53.114;18.040;2023-09-19T00:48:32;21.40;99.90
19168;DHT22;9716;53.114;18.040;2023-09-19T00:51:04;21.40;99.90
19168;DHT22;9716;53.114;18.040;2023-09-19T00:53:34;21.40;99.90
19168;DHT22;9716;53.114;18.040;2023-09-19T00:56:03;21.40;99.90
19168;DHT22;9716;53.114;18.040;2023-09-19T00:58:34;21.40;99.90
19168;DHT22;9716;53.114;18.040;2023-09-19T01:01:02;21.40;99.90
19168;DHT22;9716;53.114;18.040;2023-09-19T01:03:34;21.40;99.90
19168;DHT22;9716;53.114;18.040;2023-09-19T01:06:03;21.40;99.90
19168;DHT22;9716;53.114;18.040;2023-09-19T01:08:32;21.40;99.90
19168;DHT22;9716;53.114;18.040;2023-09-19T01:11:19;21.40;99.90
19168;DHT22;9716;53.114;18.040;2023-09-19T01:13:55;21.40;99.90
19168;DHT22;9716;53.114;18.040;2023-09-19T01:16:32;21.40;99.90
19168;DHT22;9716;53.114;18.040;2023-09-19T01:19:21;21.40;99.90
19168;DHT22;9716;53.114;18.040;2023-09-19T01:21:55;21.30;99.90
19168;DHT22;9716;53.114;18.040;2023-09-19T01:24:53;21.40;99.90
19168;DHT22;9716;53.114;18.040;2023-09-19T01:27:53;21.30;99.90
19168;DHT22;9716;53.114;18.040;2023-09-19T01:30:32;21.30;99.90
19168;DHT22;9716;53.114;18.040;2023-09-19T01:33:05;21.30;99.90
19168;DHT22;9716;53.114;18.040;2023-09-19T01:35:35;21.30;99.90
19168;DHT22;9716;53.114;18.040;2023-09-19T01:38:06;21.30;99.90
19168;DHT22;9716;53.114;18.040;2023-09-19T01:40:41;21.30;99.90
19168;DHT22;9716;53.114;18.040;2023-09-19T01:43:16;21.30;99.90
19168;DHT22;9716;53.114;18.040;2023-09-19T01:45:57;21.20;99.90
19168;DHT22;9716;53.114;18.040;2023-09-19T01:48:35;21.30;99.90
19168;DHT22;9716;53.114;18.040;2023-09-19T01:51:09;21.20;99.90
19168;DHT22;9716;53.114;18.040;2023-09-19T01:53:44;21.20;99.90
19168;DHT22;9716;53.114;18.040;2023-09-19T01:56:21;21.10;99.90
19168;DHT22;9716;53.114;18.040;2023-09-19T01:58:55;21.10;99.90
19168;DHT22;9716;53.114;18.040;2023-09-19T02:01:27;21.00;99.90
19168;DHT22;9716;53.114;18.040;2023-09-19T02:03:56;21.00;99.90
19168;DHT22;9716;53.114;18.040;2023-09-19T02:06:25;21.00;99.90
19168;DHT22;9716;53.114;18.040;2023-09-19T02:08:54;20.90;99.90
19168;DHT22;9716;53.114;18.040;2023-09-19T02:11:23;20.80;99.90
19168;DHT22;9716;53.114;18.040;2023-09-19T02:13:51;20.80;99.90
19168;DHT22;9716;53.114;18.040;2023-09-19T02:16:22;20.80;99.90
19168;DHT22;9716;53.114;18.040;2023-09-19T02:18:52;20.80;99.90
19168;DHT22;9716;53.114;18.040;2023-09-19T02:21:20;20.70;99.90
19168;DHT22;9716;53.114;18.040;2023-09-19T02:23:49;20.70;99.90
19168;DHT22;9716;53.114;18.040;2023-09-19T02:26:18;20.60;99.90
19168;DHT22;9716;53.114;18.040;2023-09-19T02:28:47;20.60;99.90
19168;DHT22;9716;53.114;18.040;2023-09-19T02:31:16;20.50;99.90
19168;DHT22;9716;53.114;18.040;2023-09-19T02:33:44;20.60;99.90
19168;DHT22;9716;53.114;18.040;2023-09-19T02:36:14;20.50;99.90
19168;DHT22;9716;53.114;18.040;2023-09-19T02:38:44;20.50;99.90
19168;DHT22;9716;53.114;18.040;2023-09-19T02:41:13;20.50;99.90
19168;DHT22;9716;53.114;18.040;2023-09-19T02:43:41;20.50;99.90
19168;DHT22;9716;53.114;18.040;2023-09-19T02:46:11;20.40;99.90
19168;DHT22;9716;53.114;18.040;2023-09-19T02:48:39;20.40;99.90
19168;DHT22;9716;53.114;18.040;2023-09-19T02:51:09;20.40;99.90
19168;DHT22;9716;53.114;18.040;2023-09-19T02:53:39;20.40;99.90
19168;DHT22;9716;53.114;18.040;2023-09-19T02:56:08;20.40;99.90
19168;DHT22;9716;53.114;18.040;2023-09-19T02:58:39;20.30;99.90
19168;DHT22;9716;53.114;18.040;2023-09-19T03:01:09;20.30;99.90
19168;DHT22;9716;53.114;18.040;2023-09-19T03:03:38;20.30;99.90
19168;DHT22;9716;53.114;18.040;2023-09-19T03:06:08;20.30;99.90
19168;DHT22;9716;53.114;18.040;2023-09-19T03:08:38;20.30;99.90
19168;DHT22;9716;53.114;18.040;2023-09-19T03:11:09;20.30;99.90
19168;DHT22;9716;53.114;18.040;2023-09-19T03:13:38;20.30;99.90
19168;DHT22;9716;53.114;18.040;2023-09-19T03:16:07;20.30;99.90
19168;DHT22;9716;53.114;18.040;2023-09-19T03:18:36;20.20;99.90
19168;DHT22;9716;53.114;18.040;2023-09-19T03:21:04;20.20;99.90
19168;DHT22;9716;53.114;18.040;2023-09-19T03:23:33;20.20;99.90
19168;DHT22;9716;53.114;18.040;2023-09-19T03:26:03;20.20;99.90
19168;DHT22;9716;53.114;18.040;2023-09-19T03:28:33;20.20;99.90
19168;DHT22;9716;53.114;18.040;2023-09-19T03:31:03;20.20;99.90
19168;DHT22;9716;53.114;18.040;2023-09-19T03:33:32;20.20;99.90
19168;DHT22;9716;53.114;18.040;2023-09-19T03:36:01;20.20;99.90
19168;DHT22;9716;53.114;18.040;2023-09-19T03:38:32;20.10;99.90
19168;DHT22;9716;53.114;18.040;2023-09-19T03:41:03;20.10;99.90
19168;DHT22;9716;53.114;18.040;2023-09-19T03:43:32;20.10;99.90
19168;DHT22;9716;53.114;18.040;2023-09-19T03:46:01;20.10;99.90
19168;DHT22;9716;53.114;18.040;2023-09-19T03:48:31;20.10;99.90
19168;DHT22;9716;53.114;18.040;2023-09-19T03:51:01;20.10;99.90
19168;DHT22;9716;53.114;18.040;2023-09-19T03:53:29;20.10;99.90
19168;DHT22;9716;53.114;18.040;2023-09-19T03:55:58;20.10;99.90
19168;DHT22;9716;53.114;18.040;2023-09-19T03:58:28;20.10;99.90
19168;DHT22;9716;53.114;18.040;2023-09-19T04:00:57;20.00;99.90
19168;DHT22;9716;53.114;18.040;2023-09-19T04:03:26;20.10;99.90
19168;DHT22;9716;53.114;18.040;2023-09-19T04:06:03;20.00;99.90
19168;DHT22;9716;53.114;18.040;2023-09-19T04:08:31;20.00;99.90
19168;DHT22;9716;53.114;18.040;2023-09-19T04:11:00;20.00;99.90
19168;DHT22;9716;53.114;18.040;2023-09-19T04:13:29;20.00;99.90
19168;DHT22;9716;53.114;18.040;2023-09-19T04:15:58;20.00;99.90
19168;DHT22;9716;53.114;18.040;2023-09-19T04:18:27;19.90;99.90
19168;DHT22;9716;53.114;18.040;2023-09-19T04:20:58;19.90;99.90
19168;DHT22;9716;53.114;18.040;2023-09-19T04:23:28;19.90;99.90
19168;DHT22;9716;53.114;18.040;2023-09-19T04:25:57;19.90;99.90
19168;DHT22;9716;53.114;18.040;2023-09-19T04:28:25;19.90;99.90
19168;DHT22;9716;53.114;18.040;2023-09-19T04:30:56;19.90;99.90
19168;DHT22;9716;53.114;18.040;2023-09-19T04:33:25;19.90;99.90
19168;DHT22;9716;53.114;18.040;2023-09-19T04:35:55;19.80;99.90
19168;DHT22;9716;53.114;18.040;2023-09-19T04:38:29;19.80;99.90
19168;DHT22;9716;53.114;18.040;2023-09-19T04:40:57;19.80;99.90
19168;DHT22;9716;53.114;18.040;2023-09-19T04:43:26;19.70;99.90
19168;DHT22;9716;53.114;18.040;2023-09-19T04:45:57;19.80;99.90
19168;DHT22;9716;53.114;18.040;2023-09-19T04:48:27;19.70;99.90
19168;DHT22;9716;53.114;18.040;2023-09-19T04:50:57;19.70;99.90
19168;DHT22;9716;53.114;18.040;2023-09-19T04:53:26;19.70;99.90
19168;DHT22;9716;53.114;18.040;2023-09-19T04:55:55;19.70;99.90
19168;DHT22;9716;53.114;18.040;2023-09-19T04:58:23;19.70;99.90
19168;DHT22;9716;53.114;18.040;2023-09-19T05:00:52;19.70;99.90
19168;DHT22;9716;53.114;18.040;2023-09-19T05:03:22;19.70;99.90
19168;DHT22;9716;53.114;18.040;2023-09-19T05:05:51;19.70;99.90
19168;DHT22;9716;53.114;18.040;2023-09-19T05:08:19;19.70;99.90
19168;DHT22;9716;53.114;18.040;2023-09-19T05:10:49;19.70;99.90
19168;DHT22;9716;53.114;18.040;2023-09-19T05:13:17;19.70;99.90
19168;DHT22;9716;53.114;18.040;2023-09-19T05:15:46;19.70;99.90
19168;DHT22;9716;53.114;18.040;2023-09-19T05:18:14;19.70;99.90
19168;DHT22;9716;53.114;18.040;2023-09-19T05:20:44;19.80;99.90
19168;DHT22;9716;53.114;18.040;2023-09-19T05:23:13;19.80;99.90
19168;DHT22;9716;53.114;18.040;2023-09-19T05:25:41;19.80;99.90
19168;DHT22;9716;53.114;18.040;2023-09-19T05:28:10;19.80;99.90
19168;DHT22;9716;53.114;18.040;2023-09-19T05:30:42;19.80;99.90
19168;DHT22;9716;53.114;18.040;2023-09-19T05:33:15;19.90;99.90
19168;DHT22;9716;53.114;18.040;2023-09-19T05:35:47;19.90;99.90
19168;DHT22;9716;53.114;18.040;2023-09-19T05:38:16;20.00;99.90
19168;DHT22;9716;53.114;18.040;2023-09-19T05:40:46;20.00;99.90
19168;DHT22;9716;53.114;18.040;2023-09-19T05:43:14;20.00;99.90
19168;DHT22;9716;53.114;18.040;2023-09-19T05:45:43;20.10;99.90
19168;DHT22;9716;53.114;18.040;2023-09-19T05:48:13;20.10;99.90
19168;DHT22;9716;53.114;18.040;2023-09-19T05:50:44;20.10;99.90
19168;DHT22;9716;53.114;18.040;2023-09-19T05:53:17;20.20;99.90
19168;DHT22;9716;53.114;18.040;2023-09-19T05:55:46;20.20;99.90
19168;DHT22;9716;53.114;18.040;2023-09-19T05:58:14;20.20;99.90
19168;DHT22;9716;53.114;18.040;2023-09-19T06:00:45;20.20;99.90
19168;DHT22;9716;53.114;18.040;2023-09-19T06:03:15;20.20;99.90
19168;DHT22;9716;53.114;18.040;2023-09-19T06:05:45;20.20;99.90
19168;DHT22;9716;53.114;18.040;2023-09-19T06:08:18;20.20;99.90
19168;DHT22;9716;53.114;18.040;2023-09-19T06:10:46;20.20;99.90
19168;DHT22;9716;53.114;18.040;2023-09-19T06:13:16;20.20;99.90
19168;DHT22;9716;53.114;18.040;2023-09-19T06:15:46;20.20;99.90
19168;DHT22;9716;53.114;18.040;2023-09-19T06:18:14;20.10;99.90
19168;DHT22;9716;53.114;18.040;2023-09-19T06:20:48;20.20;99.90
19168;DHT22;9716;53.114;18.040;2023-09-19T06:23:20;20.10;99.90
19168;DHT22;9716;53.114;18.040;2023-09-19T06:25:50;20.10;99.90
19168;DHT22;9716;53.114;18.040;2023-09-19T06:28:18;20.10;99.90
19168;DHT22;9716;53.114;18.040;2023-09-19T06:30:51;20.10;99.90
19168;DHT22;9716;53.114;18.040;2023-09-19T06:33:20;20.10;99.90
19168;DHT22;9716;53.114;18.040;2023-09-19T06:35:49;20.10;99.90
19168;DHT22;9716;53.114;18.040;2023-09-19T06:38:21;20.10;99.90
19168;DHT22;9716;53.114;18.040;2023-09-19T06:40:51;20.10;99.90
19168;DHT22;9716;53.114;18.040;2023-09-19T06:43:19;20.10;99.90
19168;DHT22;9716;53.114;18.040;2023-09-19T06:45:48;20.10;99.90
19168;DHT22;9716;53.114;18.040;2023-09-19T06:48:17;20.20;99.90
19168;DHT22;9716;53.114;18.040;2023-09-19T06:50:46;20.20;99.90
19168;DHT22;9716;53.114;18.040;2023-09-19T06:53:15;20.20;99.90
19168;DHT22;9716;53.114;18.040;2023-09-19T06:55:45;20.20;99.90
19168;DHT22;9716;53.114;18.040;2023-09-19T06:58:14;20.30;99.90
19168;DHT22;9716;53.114;18.040;2023-09-19T07:00:44;20.30;99.90
19168;DHT22;9716;53.114;18.040;2023-09-19T07:03:13;20.30;99.90
19168;DHT22;9716;53.114;18.040;2023-09-19T07:05:43;20.30;99.90
19168;DHT22;9716;53.114;18.040;2023-09-19T07:08:12;20.30;99.90
19168;DHT22;9716;53.114;18.040;2023-09-19T07:10:41;20.40;99.90
19168;DHT22;9716;53.114;18.040;2023-09-19T07:13:18;20.40;99.90
19168;DHT22;9716;53.114;18.040;2023-09-19T07:15:46;20.50;99.90
19168;DHT22;9716;53.114;18.040;2023-09-19T07:18:17;20.50;99.90
19168;DHT22;9716;53.114;18.040;2023-09-19T07:20:47;20.50;99.90
19168;DHT22;9716;53.114;18.040;2023-09-19T07:23:18;20.60;99.90
19168;DHT22;9716;53.114;18.040;2023-09-19T07:25:49;20.70;99.90
19168;DHT22;9716;53.114;18.040;2023-09-19T07:28:19;20.80;99.90
19168;DHT22;9716;53.114;18.040;2023-09-19T07:30:48;20.90;99.90
19168;DHT22;9716;53.114;18.040;2023-09-19T07:33:17;21.00;99.90
19168;DHT22;9716;53.114;18.040;2023-09-19T07:35:45;21.10;99.90
19168;DHT22;9716;53.114;18.040;2023-09-19T07:38:14;21.10;99.90
19168;DHT22;9716;53.114;18.040;2023-09-19T07:40:44;21.20;99.90
19168;DHT22;9716;53.114;18.040;2023-09-19T07:43:12;21.20;99.90
19168;DHT22;9716;53.114;18.040;2023-09-19T07:45:42;21.30;99.90
19168;DHT22;9716;53.114;18.040;2023-09-19T07:48:10;21.40;99.90
19168;DHT22;9716;53.114;18.040;2023-09-19T07:50:42;21.40;99.90
19168;DHT22;9716;53.114;18.040;2023-09-19T07:53:12;21.50;99.90
19168;DHT22;9716;53.114;18.040;2023-09-19T07:55:42;21.60;99.90
19168;DHT22;9716;53.114;18.040;2023-09-19T07:58:15;21.60;99.90
19168;DHT22;9716;53.114;18.040;2023-09-19T08:00:45;21.70;99.90
19168;DHT22;9716;53.114;18.040;2023-09-19T08:03:14;21.60;99.90
19168;DHT22;9716;53.114;18.040;2023-09-19T08:05:45;21.60;99.90
19168;DHT22;9716;53.114;18.040;2023-09-19T08:08:15;21.50;99.90
19168;DHT22;9716;53.114;18.040;2023-09-19T08:10:44;21.50;99.90
19168;DHT22;9716;53.114;18.040;2023-09-19T08:13:16;21.40;99.90
19168;DHT22;9716;53.114;18.040;2023-09-19T08:15:47;21.40;99.90
19168;DHT22;9716;53.114;18.040;2023-09-19T08:18:16;21.50;99.90
19168;DHT22;9716;53.114;18.040;2023-09-19T08:20:49;21.50;99.90
19168;DHT22;9716;53.114;18.040;2023-09-19T08:23:18;21.70;99.90
19168;DHT22;9716;53.114;18.040;2023-09-19T08:25:47;21.80;99.90
19168;DHT22;9716;53.114;18.040;2023-09-19T08:28:16;22.00;99.90
19168;DHT22;9716;53.114;18.040;2023-09-19T08:30:47;22.20;99.90
19168;DHT22;9716;53.114;18.040;2023-09-19T08:33:16;22.30;99.90
19168;DHT22;9716;53.114;18.040;2023-09-19T08:35:44;22.40;99.90
19168;DHT22;9716;53.114;18.040;2023-09-19T08:38:13;22.50;99.90
19168;DHT22;9716;53.114;18.040;2023-09-19T08:40:42;22.50;99.90
19168;DHT22;9716;53.114;18.040;2023-09-19T08:43:10;22.50;99.90
19168;DHT22;9716;53.114;18.040;2023-09-19T08:45:40;22.60;99.90
19168;DHT22;9716;53.114;18.040;2023-09-19T08:48:19;22.60;99.90
19168;DHT22;9716;53.114;18.040;2023-09-19T08:50:52;22.70;99.90
19168;DHT22;9716;53.114;18.040;2023-09-19T08:53:26;22.80;99.90
19168;DHT22;9716;53.114;18.040;2023-09-19T08:55:56;22.90;99.90
19168;DHT22;9716;53.114;18.040;2023-09-19T08:58:29;23.00;99.90
19168;DHT22;9716;53.114;18.040;2023-09-19T09:01:01;23.10;99.90
19168;DHT22;9716;53.114;18.040;2023-09-19T09:03:32;23.10;99.90
19168;DHT22;9716;53.114;18.040;2023-09-19T09:06:02;23.20;99.90
19168;DHT22;9716;53.114;18.040;2023-09-19T09:08:31;23.30;99.90
19168;DHT22;9716;53.114;18.040;2023-09-19T09:11:00;23.40;99.90
19168;DHT22;9716;53.114;18.040;2023-09-19T09:13:29;23.50;99.90
19168;DHT22;9716;53.114;18.040;2023-09-19T09:15:58;23.50;99.90
19168;DHT22;9716;53.114;18.040;2023-09-19T09:18:28;23.60;99.90
19168;DHT22;9716;53.114;18.040;2023-09-19T09:20:58;23.60;99.90
19168;DHT22;9716;53.114;18.040;2023-09-19T09:23:27;23.70;99.90
19168;DHT22;9716;53.114;18.040;2023-09-19T09:25:58;23.80;99.90
19168;DHT22;9716;53.114;18.040;2023-09-19T09:28:31;23.90;99.90
19168;DHT22;9716;53.114;18.040;2023-09-19T09:31:01;24.00;99.90
19168;DHT22;9716;53.114;18.040;2023-09-19T09:33:35;24.10;99.90
19168;DHT22;9716;53.114;18.040;2023-09-19T09:36:06;24.10;99.90
19168;DHT22;9716;53.114;18.040;2023-09-19T09:38:43;24.20;99.90
19168;DHT22;9716;53.114;18.040;2023-09-19T09:41:13;24.30;99.90
19168;DHT22;9716;53.114;18.040;2023-09-19T09:43:54;24.40;99.90
19168;DHT22;9716;53.114;18.040;2023-09-19T09:46:23;24.40;99.90
19168;DHT22;9716;53.114;18.040;2023-09-19T09:49:10;24.30;99.90
19168;DHT22;9716;53.114;18.040;2023-09-19T09:52:02;24.20;99.90
19168;DHT22;9716;53.114;18.040;2023-09-19T09:54:38;24.30;99.90
19168;DHT22;9716;53.114;18.040;2023-09-19T09:57:10;24.40;99.90
19168;DHT22;9716;53.114;18.040;2023-09-19T09:59:46;24.40;99.90
19168;DHT22;9716;53.114;18.040;2023-09-19T10:02:14;24.50;99.90
19168;DHT22;9716;53.114;18.040;2023-09-19T10:04:47;24.60;99.90
19168;DHT22;9716;53.114;18.040;2023-09-19T10:07:42;24.70;99.90
19168;DHT22;9716;53.114;18.040;2023-09-19T10:10:30;24.80;99.90
19168;DHT22;9716;53.114;18.040;2023-09-19T10:13:07;24.90;99.90
19168;DHT22;9716;53.114;18.040;2023-09-19T10:15:39;25.00;99.90
19168;DHT22;9716;53.114;18.040;2023-09-19T10:18:11;25.00;99.90
19168;DHT22;9716;53.114;18.040;2023-09-19T10:20:45;25.10;99.90
19168;DHT22;9716;53.114;18.040;2023-09-19T10:23:17;25.00;99.90
19168;DHT22;9716;53.114;18.040;2023-09-19T10:25:50;25.00;99.90
19168;DHT22;9716;53.114;18.040;2023-09-19T10:28:20;25.00;99.90
19168;DHT22;9716;53.114;18.040;2023-09-19T10:30:51;24.90;99.90
19168;DHT22;9716;53.114;18.040;2023-09-19T10:33:22;24.80;99.90
19168;DHT22;9716;53.114;18.040;2023-09-19T10:35:53;24.80;99.90
19168;DHT22;9716;53.114;18.040;2023-09-19T10:38:25;24.80;99.90
19168;DHT22;9716;53.114;18.040;2023-09-19T10:40:56;24.90;99.90
19168;DHT22;9716;53.114;18.040;2023-09-19T10:43:30;24.90;99.90
19168;DHT22;9716;53.114;18.040;2023-09-19T10:46:06;25.00;99.90
19168;DHT22;9716;53.114;18.040;2023-09-19T10:48:38;25.00;99.90
19168;DHT22;9716;53.114;18.040;2023-09-19T10:51:10;25.10;99.90
19168;DHT22;9716;53.114;18.040;2023-09-19T10:53:45;25.30;99.90
19168;DHT22;9716;53.114;18.040;2023-09-19T10:56:21;25.50;99.90
19168;DHT22;9716;53.114;18.040;2023-09-19T10:58:51;25.80;99.90
19168;DHT22;9716;53.114;18.040;2023-09-19T11:01:20;25.90;99.90
19168;DHT22;9716;53.114;18.040;2023-09-19T11:04:24;26.10;99.90
19168;DHT22;9716;53.114;18.040;2023-09-19T11:07:02;26.10;99.90
19168;DHT22;9716;53.114;18.040;2023-09-19T11:09:47;26.20;99.90
19168;DHT22;9716;53.114;18.040;2023-09-19T11:12:49;26.20;99.90
19168;DHT22;9716;53.114;18.040;2023-09-19T11:18:55;26.20;99.90
19168;DHT22;9716;53.114;18.040;2023-09-19T11:21:40;26.10;99.90
19168;DHT22;9716;53.114;18.040;2023-09-19T11:24:28;26.10;99.90
19168;DHT22;9716;53.114;18.040;2023-09-19T11:27:17;26.10;99.90
19168;DHT22;9716;53.114;18.040;2023-09-19T11:29:47;25.90;99.90
19168;DHT22;9716;53.114;18.040;2023-09-19T11:32:16;25.90;99.90
19168;DHT22;9716;53.114;18.040;2023-09-19T11:34:47;25.90;99.90
19168;DHT22;9716;53.114;18.040;2023-09-19T11:40:38;25.80;99.90
19168;DHT22;9716;53.114;18.040;2023-09-19T11:43:33;25.90;99.90
19168;DHT22;9716;53.114;18.040;2023-09-19T11:46:06;25.90;99.90
19168;DHT22;9716;53.114;18.040;2023-09-19T11:48:38;25.90;99.90
19168;DHT22;9716;53.114;18.040;2023-09-19T11:51:12;26.00;99.90
19168;DHT22;9716;53.114;18.040;2023-09-19T11:53:47;26.00;99.90
19168;DHT22;9716;53.114;18.040;2023-09-19T11:56:17;26.10;99.70
19168;DHT22;9716;53.114;18.040;2023-09-19T11:58:50;26.10;99.00
19168;DHT22;9716;53.114;18.040;2023-09-19T12:01:23;26.00;98.00
19168;DHT22;9716;53.114;18.040;2023-09-19T12:03:54;26.00;97.50
19168;DHT22;9716;53.114;18.040;2023-09-19T12:06:25;25.90;97.30
19168;DHT22;9716;53.114;18.040;2023-09-19T12:08:54;25.80;97.30
19168;DHT22;9716;53.114;18.040;2023-09-19T12:11:27;25.80;97.60
19168;DHT22;9716;53.114;18.040;2023-09-19T12:13:57;25.80;97.30
19168;DHT22;9716;53.114;18.040;2023-09-19T12:16:28;25.90;96.60
19168;DHT22;9716;53.114;18.040;2023-09-19T12:18:58;25.80;96.20
19168;DHT22;9716;53.114;18.040;2023-09-19T12:21:54;25.80;95.70
19168;DHT22;9716;53.114;18.040;2023-09-19T12:24:24;25.70;95.60
19168;DHT22;9716;53.114;18.040;2023-09-19T12:26:53;25.70;95.40
19168;DHT22;9716;53.114;18.040;2023-09-19T12:29:25;25.60;95.30
19168;DHT22;9716;53.114;18.040;2023-09-19T12:31:55;25.50;95.20
19168;DHT22;9716;53.114;18.040;2023-09-19T12:34:25;25.40;95.30
19168;DHT22;9716;53.114;18.040;2023-09-19T12:37:08;25.30;95.10
19168;DHT22;9716;53.114;18.040;2023-09-19T12:40:05;25.20;94.50
19168;DHT22;9716;53.114;18.040;2023-09-19T12:42:44;25.00;94.40
19168;DHT22;9716;53.114;18.040;2023-09-19T12:45:15;24.90;94.20
19168;DHT22;9716;53.114;18.040;2023-09-19T12:48:19;24.80;94.10
19168;DHT22;9716;53.114;18.040;2023-09-19T12:51:04;24.70;94.30
19168;DHT22;9716;53.114;18.040;2023-09-19T12:53:36;24.50;94.70
19168;DHT22;9716;53.114;18.040;2023-09-19T12:56:09;24.40;94.90
19168;DHT22;9716;53.114;18.040;2023-09-19T12:58:50;24.30;95.20
19168;DHT22;9716;53.114;18.040;2023-09-19T13:01:24;24.20;95.40
19168;DHT22;9716;53.114;18.040;2023-09-19T13:04:14;24.10;95.30
19168;DHT22;9716;53.114;18.040;2023-09-19T13:06:46;24.10;95.50
19168;DHT22;9716;53.114;18.040;2023-09-19T13:09:16;24.00;95.40
19168;DHT22;9716;53.114;18.040;2023-09-19T13:11:46;23.90;95.50
19168;DHT22;9716;53.114;18.040;2023-09-19T13:14:19;23.90;95.70
19168;DHT22;9716;53.114;18.040;2023-09-19T13:16:57;23.90;95.70
19168;DHT22;9716;53.114;18.040;2023-09-19T13:19:36;23.90;95.80
19168;DHT22;9716;53.114;18.040;2023-09-19T13:22:05;23.80;95.70
19168;DHT22;9716;53.114;18.040;2023-09-19T13:24:35;23.70;95.60
19168;DHT22;9716;53.114;18.040;2023-09-19T13:27:08;23.70;95.50
19168;DHT22;9716;53.114;18.040;2023-09-19T13:29:37;23.70;95.30
19168;DHT22;9716;53.114;18.040;2023-09-19T13:32:07;23.60;95.20
19168;DHT22;9716;53.114;18.040;2023-09-19T13:34:38;23.50;95.20
19168;DHT22;9716;53.114;18.040;2023-09-19T13:37:07;23.40;95.20
19168;DHT22;9716;53.114;18.040;2023-09-19T13:39:37;23.30;95.30
19168;DHT22;9716;53.114;18.040;2023-09-19T13:42:09;23.20;95.50
19168;DHT22;9716;53.114;18.040;2023-09-19T13:44:39;23.10;95.60
19168;DHT22;9716;53.114;18.040;2023-09-19T13:47:10;23.10;95.50
19168;DHT22;9716;53.114;18.040;2023-09-19T13:49:40;23.10;95.50
19168;DHT22;9716;53.114;18.040;2023-09-19T13:52:10;23.20;95.50
19168;DHT22;9716;53.114;18.040;2023-09-19T13:54:40;23.30;95.50
19168;DHT22;9716;53.114;18.040;2023-09-19T13:57:08;23.30;95.70
19168;DHT22;9716;53.114;18.040;2023-09-19T13:59:37;23.40;95.80
19168;DHT22;9716;53.114;18.040;2023-09-19T14:02:06;23.50;95.90
19168;DHT22;9716;53.114;18.040;2023-09-19T14:04:36;23.50;96.00
19168;DHT22;9716;53.114;18.040;2023-09-19T14:07:05;23.60;96.00
19168;DHT22;9716;53.114;18.040;2023-09-19T14:09:35;23.70;96.00
19168;DHT22;9716;53.114;18.040;2023-09-19T14:12:04;23.80;95.80
19168;DHT22;9716;53.114;18.040;2023-09-19T14:14:33;23.90;95.80
19168;DHT22;9716;53.114;18.040;2023-09-19T14:17:02;24.10;95.70
19168;DHT22;9716;53.114;18.040;2023-09-19T14:19:31;24.20;95.60
19168;DHT22;9716;53.114;18.040;2023-09-19T14:22:01;24.30;95.40
19168;DHT22;9716;53.114;18.040;2023-09-19T14:24:34;24.40;95.10
19168;DHT22;9716;53.114;18.040;2023-09-19T14:27:04;24.40;94.80
19168;DHT22;9716;53.114;18.040;2023-09-19T14:29:33;24.40;94.50
19168;DHT22;9716;53.114;18.040;2023-09-19T14:32:03;24.40;94.30
19168;DHT22;9716;53.114;18.040;2023-09-19T14:34:32;24.40;94.20
19168;DHT22;9716;53.114;18.040;2023-09-19T14:37:02;24.40;94.20
19168;DHT22;9716;53.114;18.040;2023-09-19T14:39:31;24.30;94.10
19168;DHT22;9716;53.114;18.040;2023-09-19T14:41:59;24.30;94.10
19168;DHT22;9716;53.114;18.040;2023-09-19T14:44:27;24.30;94.00
19168;DHT22;9716;53.114;18.040;2023-09-19T14:46:56;24.30;94.00
19168;DHT22;9716;53.114;18.040;2023-09-19T14:49:25;24.30;94.00
19168;DHT22;9716;53.114;18.040;2023-09-19T14:51:54;24.30;93.80
19168;DHT22;9716;53.114;18.040;2023-09-19T14:54:24;24.20;93.90
19168;DHT22;9716;53.114;18.040;2023-09-19T14:56:53;24.20;94.10
19168;DHT22;9716;53.114;18.040;2023-09-19T14:59:31;24.10;94.00
19168;DHT22;9716;53.114;18.040;2023-09-19T15:02:00;24.10;93.00
19168;DHT22;9716;53.114;18.040;2023-09-19T15:04:29;24.00;92.30
19168;DHT22;9716;53.114;18.040;2023-09-19T15:06:58;23.90;92.40
19168;DHT22;9716;53.114;18.040;2023-09-19T15:09:28;23.80;92.50
19168;DHT22;9716;53.114;18.040;2023-09-19T15:11:59;23.70;92.80
19168;DHT22;9716;53.114;18.040;2023-09-19T15:14:28;23.60;93.00
19168;DHT22;9716;53.114;18.040;2023-09-19T15:16:57;23.50;93.30
19168;DHT22;9716;53.114;18.040;2023-09-19T15:19:25;23.40;93.50
19168;DHT22;9716;53.114;18.040;2023-09-19T15:21:54;23.30;93.70
19168;DHT22;9716;53.114;18.040;2023-09-19T15:24:23;23.30;94.00
19168;DHT22;9716;53.114;18.040;2023-09-19T15:26:56;23.20;94.20
19168;DHT22;9716;53.114;18.040;2023-09-19T15:29:24;23.20;94.40
19168;DHT22;9716;53.114;18.040;2023-09-19T15:31:55;23.10;94.50
19168;DHT22;9716;53.114;18.040;2023-09-19T15:34:26;23.10;94.70
19168;DHT22;9716;53.114;18.040;2023-09-19T15:36:55;23.00;94.80
19168;DHT22;9716;53.114;18.040;2023-09-19T15:39:23;23.00;94.90
19168;DHT22;9716;53.114;18.040;2023-09-19T15:41:52;22.90;95.10
19168;DHT22;9716;53.114;18.040;2023-09-19T15:44:22;22.90;95.30
19168;DHT22;9716;53.114;18.040;2023-09-19T15:46:51;22.90;95.50
19168;DHT22;9716;53.114;18.040;2023-09-19T15:49:19;22.80;95.60
19168;DHT22;9716;53.114;18.040;2023-09-19T15:51:48;22.80;95.70
19168;DHT22;9716;53.114;18.040;2023-09-19T15:54:17;22.70;95.80
19168;DHT22;9716;53.114;18.040;2023-09-19T15:56:46;22.70;96.00
19168;DHT22;9716;53.114;18.040;2023-09-19T15:59:15;22.60;96.20
19168;DHT22;9716;53.114;18.040;2023-09-19T16:01:45;22.60;96.40
19168;DHT22;9716;53.114;18.040;2023-09-19T16:04:15;22.50;96.60